Time;durP1;ratioP1;P1;durP2;ratioP2;P2;SDS_P1;SDS_P2;PMS_P1;PMS_P2;Temp;Humidity;BMP_temperature;BMP_pressure;BME280_temperature;BME280_humidity;BME280_pressure;Samples;Min_cycle;Max_cycle;Signal;HPM_P1;HPM_P2
2021/07/22 00:01:45;;;;;;;6.00;1.98;;;;;;;17.39;78.57;101013.69;1673026;85;25789;-60
2021/07/22 00:04:14;;;;;;;9.53;2.08;;;;;;;17.41;78.45;101016.22;1671953;85;27467;-60
2021/07/22 00:06:40;;;;;;;3.55;1.90;;;;;;;17.45;78.65;101017.58;1673976;84;25823;-59
2021/07/22 00:09:07;;;;;;;3.83;2.00;;;;;;;17.44;78.32;101016.71;1673726;85;26480;-60
2021/07/22 00:11:34;;;;;;;6.87;1.72;;;;;;;17.46;78.32;101010.59;1673803;85;25829;-59
2021/07/22 00:14:01;;;;;;;7.65;1.90;;;;;;;17.47;78.29;101021.81;1669857;85;25800;-61
2021/07/22 00:16:30;;;;;;;10.68;2.10;;;;;;;17.48;78.28;101011.27;1673909;85;27470;-60
2021/07/22 00:18:57;;;;;;;7.15;1.87;;;;;;;17.50;78.19;101015.16;1674117;84;25816;-60
2021/07/22 00:21:24;;;;;;;5.58;2.05;;;;;;;17.50;78.15;101016.52;1673344;84;26440;-60
2021/07/22 00:23:52;;;;;;;4.47;1.95;;;;;;;17.51;78.11;101013.65;1678904;84;25808;-60
2021/07/22 00:26:19;;;;;;;10.13;1.90;;;;;;;17.52;77.97;101016.70;1683325;83;25837;-61
2021/07/22 00:28:46;;;;;;;5.28;1.62;;;;;;;17.53;77.97;101014.83;1683588;85;27837;-60
2021/07/22 00:31:13;;;;;;;9.95;1.82;;;;;;;17.56;77.95;101020.42;1683562;83;25740;-62
2021/07/22 00:33:40;;;;;;;5.30;2.30;;;;;;;17.58;77.86;101019.73;1683831;85;25785;-60
2021/07/22 00:36:10;;;;;;;3.70;1.75;;;;;;;17.60;77.84;101027.22;1683243;84;25884;-59
2021/07/22 00:38:38;;;;;;;8.25;2.20;;;;;;;17.62;77.84;101030.09;1683981;84;26004;-59
2021/07/22 00:41:10;;;;;;;10.50;2.20;;;;;;;17.61;77.78;101027.03;1683870;85;27528;-59
2021/07/22 00:43:35;;;;;;;8.48;2.20;;;;;;;17.60;77.75;101032.12;1683527;85;26333;-59
2021/07/22 00:46:02;;;;;;;8.80;1.80;;;;;;;17.59;77.72;101026.34;1685156;84;25777;-59
2021/07/22 00:48:29;;;;;;;5.58;1.95;;;;;;;17.60;77.71;101032.66;1683843;85;25803;-59
2021/07/22 00:50:56;;;;;;;6.08;1.60;;;;;;;17.60;77.66;101035.38;1683186;84;25818;-60
2021/07/22 00:53:23;;;;;;;9.78;1.95;;;;;;;17.59;77.80;101037.23;1684024;85;27529;-59
2021/07/22 00:55:52;;;;;;;7.33;2.22;;;;;;;17.59;77.79;101031.79;1683255;85;26034;-59
2021/07/22 00:58:22;;;;;;;12.07;2.15;;;;;;;17.60;77.89;101034.02;1678742;85;25743;-61
2021/07/22 01:00:50;;;;;;;13.03;2.47;;;;;;;17.62;77.79;101034.66;1682941;85;26460;-60
2021/07/22 01:03:23;;;;;;;7.72;2.02;;;;;;;17.63;77.92;101042.67;1683809;85;25813;-60
2021/07/22 01:05:53;;;;;;;5.40;2.22;;;;;;;17.63;77.79;101041.80;1682718;85;28261;-60
2021/07/22 01:08:21;;;;;;;5.15;1.90;;;;;;;17.64;77.80;101046.22;1683945;85;25753;-60
2021/07/22 01:10:49;;;;;;;6.97;2.10;;;;;;;17.64;77.87;101047.58;1681846;85;25994;-60
2021/07/22 01:13:18;;;;;;;11.40;2.10;;;;;;;17.64;77.88;101045.73;1683827;85;25882;-60
2021/07/22 01:15:45;;;;;;;7.62;2.30;;;;;;;17.64;77.92;101046.22;1684465;85;25910;-60
2021/07/22 01:18:13;;;;;;;7.85;2.27;;;;;;;17.67;77.85;101049.44;1684192;85;27550;-60
2021/07/22 01:20:40;;;;;;;5.05;2.25;;;;;;;17.71;77.79;101054.01;1683570;83;27201;-60
2021/07/22 01:23:07;;;;;;;4.17;1.80;;;;;;;17.70;77.75;101050.98;1684630;83;25723;-60
2021/07/22 01:25:35;;;;;;;12.95;2.08;;;;;;;17.70;77.67;101047.39;1680899;85;26113;-60
2021/07/22 01:28:03;;;;;;;5.85;1.75;;;;;;;17.71;77.72;101059.98;1680429;85;25763;-59
2021/07/22 01:30:30;;;;;;;10.03;2.67;;;;;;;17.71;77.66;101055.38;1684334;85;27510;-59
2021/07/22 01:32:57;;;;;;;10.20;2.37;;;;;;;17.71;77.78;101063.53;1684226;83;25845;-60
2021/07/22 01:35:24;;;;;;;14.87;2.40;;;;;;;17.73;77.73;101057.94;1684075;85;25777;-60
2021/07/22 01:37:53;;;;;;;8.45;2.40;;;;;;;17.73;77.66;101061.49;1684185;85;25832;-60
2021/07/22 01:40:20;;;;;;;12.82;2.58;;;;;;;17.74;77.75;101060.47;1684124;83;25697;-60
2021/07/22 01:42:47;;;;;;;7.97;2.27;;;;;;;17.74;77.69;101064.55;1684337;85;28708;-60
2021/07/22 01:45:15;;;;;;;9.78;2.50;;;;;;;17.76;77.77;101068.45;1684132;83;26492;-60
2021/07/22 01:47:44;;;;;;;11.40;2.10;;;;;;;17.76;77.68;101074.75;1683776;83;25736;-59
2021/07/22 01:50:13;;;;;;;11.43;2.70;;;;;;;17.76;77.68;101072.03;1683686;85;25843;-60
2021/07/22 01:52:41;;;;;;;7.42;2.10;;;;;;;17.77;77.55;101078.31;1683777;85;25775;-60
2021/07/22 01:55:11;;;;;;;9.73;2.27;;;;;;;17.76;77.55;101067.95;1684231;85;27438;-60
2021/07/22 01:57:39;;;;;;;5.40;1.98;;;;;;;17.77;77.41;101079.17;1683465;85;25784;-60
2021/07/22 02:00:09;;;;;;;10.78;2.40;;;;;;;17.75;77.30;101081.22;1684403;85;25735;-60
2021/07/22 02:02:38;;;;;;;12.60;2.33;;;;;;;17.77;77.30;101080.53;1685236;82;26480;-60
2021/07/22 02:05:08;;;;;;;9.53;2.62;;;;;;;17.77;77.27;101086.47;1684215;83;25711;-60
2021/07/22 02:07:35;;;;;;;5.92;2.10;;;;;;;17.80;77.13;101091.05;1662556;85;27533;-60
2021/07/22 02:10:03;;;;;;;14.58;2.77;;;;;;;17.80;76.98;101091.05;1684594;85;25720;-60
2021/07/22 02:12:30;;;;;;;11.65;3.22;;;;;;;17.78;76.87;101095.84;1684725;85;25835;-60
2021/07/22 02:14:59;;;;;;;11.55;2.22;;;;;;;17.77;76.76;101107.74;1684346;85;25855;-60
2021/07/22 02:17:26;;;;;;;5.95;2.10;;;;;;;17.80;76.74;101105.18;1684200;84;25752;-59
2021/07/22 02:19:53;;;;;;;12.18;2.17;;;;;;;17.76;76.41;101100.61;1685246;83;27424;-60
2021/07/22 02:22:21;;;;;;;6.08;2.42;;;;;;;17.75;76.43;101108.42;1684747;83;25876;-60
2021/07/22 02:24:52;;;;;;;6.05;2.22;;;;;;;17.75;76.42;101117.11;1679488;83;25818;-59
2021/07/22 02:27:21;;;;;;;7.85;2.37;;;;;;;17.74;76.43;101108.09;1676039;85;26529;-59
2021/07/22 02:29:49;;;;;;;6.67;2.70;;;;;;;17.75;76.36;101107.06;1678335;85;25807;-59
2021/07/22 02:32:17;;;;;;;12.35;3.30;;;;;;;17.74;76.41;101104.00;1677074;85;28780;-60
2021/07/22 02:34:46;;;;;;;7.75;3.00;;;;;;;17.69;76.20;101106.41;1678936;85;25831;-59
2021/07/22 02:37:14;;;;;;;6.80;2.35;;;;;;;17.66;75.93;101107.59;1675021;85;25812;-60
2021/07/22 02:39:43;;;;;;;9.93;2.72;;;;;;;17.66;76.00;101110.84;1676446;85;25829;-59
2021/07/22 02:42:12;;;;;;;13.55;3.05;;;;;;;17.62;76.08;101114.91;1674310;85;25820;-59
2021/07/22 02:44:40;;;;;;;10.05;2.72;;;;;;;17.59;76.05;101110.67;1674595;85;27791;-59
2021/07/22 02:47:12;;;;;;;11.70;2.58;;;;;;;17.57;75.92;101109.99;1666994;85;25811;-60
2021/07/22 02:49:39;;;;;;;5.47;2.52;;;;;;;17.53;75.70;101112.74;1674409;85;25710;-59
2021/07/22 02:52:08;;;;;;;7.22;2.75;;;;;;;17.51;75.81;101111.56;1674397;85;25791;-59
2021/07/22 02:54:39;;;;;;;7.55;2.42;;;;;;;17.49;75.64;101114.09;1674739;84;25772;-59
2021/07/22 02:57:06;;;;;;;10.18;2.55;;;;;;;17.45;75.64;101120.40;1671055;85;27484;-60
2021/07/22 02:59:34;;;;;;;11.33;3.33;;;;;;;17.44;75.59;101121.41;1674150;85;25725;-59
2021/07/22 03:02:01;;;;;;;9.10;3.15;;;;;;;17.40;75.63;101126.88;1670835;85;25807;-60
2021/07/22 03:04:30;;;;;;;8.95;2.98;;;;;;;17.38;75.86;101123.48;1672492;85;25804;-60
2021/07/22 03:07:04;;;;;;;7.20;2.72;;;;;;;17.37;75.85;101119.05;1672589;84;27421;-60
2021/07/22 03:09:31;;;;;;;6.87;2.67;;;;;;;17.37;75.93;101125.86;1674348;85;27555;-60
2021/07/22 03:11:58;;;;;;;11.12;2.90;;;;;;;17.32;75.77;101120.09;1674426;85;25805;-60
2021/07/22 03:14:25;;;;;;;7.75;3.15;;;;;;;17.30;75.90;101130.29;1674321;85;25737;-60
2021/07/22 03:16:53;;;;;;;6.37;3.35;;;;;;;17.29;76.07;101136.74;1674319;85;26517;-60
2021/07/22 03:19:24;;;;;;;9.90;2.22;;;;;;;17.27;76.38;101136.06;1674762;84;25930;-59
2021/07/22 03:21:53;;;;;;;17.82;4.03;;;;;;;17.23;76.63;101131.48;1675577;84;27491;-60
2021/07/22 03:24:38;;;;;;;9.90;3.08;;;;;;;17.22;76.51;101132.49;1674001;85;25913;-61
2021/07/22 03:27:06;;;;;;;5.70;2.85;;;;;;;17.21;76.56;101138.45;1674228;84;26606;-61
2021/07/22 03:29:34;;;;;;;22.15;3.22;;;;;;;17.19;76.44;101141.02;1678355;84;25803;-60
2021/07/22 03:32:04;;;;;;;12.07;3.30;;;;;;;17.17;76.72;101141.69;1675162;84;25742;-61
2021/07/22 03:34:34;;;;;;;17.23;3.33;;;;;;;17.16;76.74;101144.93;1674353;85;28211;-62
2021/07/22 03:37:12;;;;;;;9.23;3.05;;;;;;;17.18;76.81;101139.31;1672578;84;26516;-63
2021/07/22 03:39:53;;;;;;;12.07;3.45;;;;;;;17.16;76.87;101146.29;1674662;85;26497;-64
2021/07/22 03:42:24;;;;;;;13.13;3.40;;;;;;;17.18;76.90;101144.75;1652971;84;25778;-60
2021/07/22 03:44:52;;;;;;;7.00;3.42;;;;;;;17.17;76.86;101146.60;1673361;84;25888;-60
2021/07/22 03:47:19;;;;;;;12.30;3.70;;;;;;;17.20;76.87;101147.62;1673911;85;27476;-61
2021/07/22 03:49:48;;;;;;;8.95;3.00;;;;;;;17.23;76.88;101155.11;1673404;84;25737;-59
2021/07/22 03:52:17;;;;;;;7.30;4.58;;;;;;;17.27;76.72;101149.66;1672267;85;25839;-58
2021/07/22 03:54:46;;;;;;;8.00;2.67;;;;;;;17.30;76.47;101149.32;1674338;85;25852;-59
2021/07/22 03:57:14;;;;;;;12.13;2.90;;;;;;;17.34;76.30;101156.97;1675161;84;26187;-61
2021/07/22 03:59:42;;;;;;;16.62;3.55;;;;;;;17.35;76.09;101155.08;1674008;84;27500;-60
2021/07/22 04:02:10;;;;;;;7.40;3.00;;;;;;;17.37;76.24;101157.12;1673880;85;25724;-61
2021/07/22 04:04:38;;;;;;;10.30;3.27;;;;;;;17.46;76.16;101157.98;1674373;85;25824;-59
2021/07/22 04:07:07;;;;;;;11.28;3.17;;;;;;;17.53;75.82;101164.42;1674973;84;25810;-58
2021/07/22 04:09:53;;;;;;;6.67;3.02;;;;;;;17.60;75.58;101155.06;1672960;85;25849;-58
2021/07/22 04:12:26;;;;;;;9.73;4.22;;;;;;;17.62;75.15;101163.88;1664805;84;27491;-60
2021/07/22 04:14:55;;;;;;;7.78;3.00;;;;;;;17.65;75.04;101159.47;1673630;84;25807;-58
2021/07/22 04:17:23;;;;;;;15.50;3.80;;;;;;;17.69;75.02;101159.47;1664524;85;25744;-59
2021/07/22 04:20:08;;;;;;;14.90;3.70;;;;;;;17.77;75.52;101162.16;1674334;83;25875;-60
2021/07/22 04:22:36;;;;;;;10.53;3.37;;;;;;;17.85;74.75;101158.55;1638467;85;25845;-62
2021/07/22 04:25:12;;;;;;;10.43;3.50;;;;;;;17.87;74.65;101162.48;1678369;84;27632;-62
2021/07/22 04:27:41;;;;;;;16.40;3.45;;;;;;;17.89;74.65;101159.05;1683247;84;25694;-60
2021/07/22 04:30:12;;;;;;;12.15;3.27;;;;;;;17.93;74.34;101159.05;1685035;85;25629;-60
2021/07/22 04:32:41;;;;;;;10.00;3.35;;;;;;;17.96;74.20;101158.22;1682390;85;25875;-60
2021/07/22 04:35:14;;;;;;;15.78;3.20;;;;;;;17.96;73.77;101164.19;1683754;85;25751;-60
2021/07/22 04:37:46;;;;;;;9.00;3.35;;;;;;;17.98;74.04;101163.47;1681337;85;28499;-60
2021/07/22 04:40:24;;;;;;;17.77;3.72;;;;;;;18.03;73.52;101161.09;1657031;83;25712;-60
2021/07/22 04:43:01;;;;;;;8.43;3.37;;;;;;;18.07;73.57;101160.22;1682640;84;25929;-60
2021/07/22 04:45:44;;;;;;;13.68;3.80;;;;;;;18.08;73.39;101164.12;1683887;85;25876;-60
2021/07/22 04:48:16;;;;;;;12.05;3.10;;;;;;;18.10;73.37;101170.25;1681609;85;25802;-60
2021/07/22 04:50:44;;;;;;;7.87;3.10;;;;;;;18.09;73.25;101169.07;1684138;85;27584;-60
2021/07/22 04:53:30;;;;;;;11.28;3.52;;;;;;;18.07;73.04;101169.23;1682294;85;25555;-60
2021/07/22 04:55:58;;;;;;;11.88;3.22;;;;;;;18.07;72.92;101163.78;1680926;84;26048;-60
2021/07/22 04:58:26;;;;;;;7.47;4.00;;;;;;;18.08;72.96;101174.17;1685344;85;25843;-59
2021/07/22 05:00:54;;;;;;;14.85;3.12;;;;;;;18.10;72.87;101172.97;1685608;84;25731;-60
2021/07/22 05:03:23;;;;;;;11.45;3.52;;;;;;;18.14;73.24;101163.93;1684598;85;27474;-60
2021/07/22 05:05:50;;;;;;;10.78;3.17;;;;;;;18.17;72.88;101167.67;1685416;85;25776;-60
2021/07/22 05:08:17;;;;;;;16.07;3.92;;;;;;;18.20;72.87;101174.11;1685479;84;25697;-60
2021/07/22 05:10:59;;;;;;;13.72;3.42;;;;;;;18.22;72.80;101154.36;1593893;89;26018;-60
2021/07/22 05:13:28;;;;;;;15.85;3.15;;;;;;;18.30;72.63;101157.05;1685360;85;32877;-60
2021/07/22 05:15:59;;;;;;;15.43;3.65;;;;;;;18.36;72.48;101162.83;1684891;85;27639;-61
2021/07/22 05:18:35;;;;;;;6.95;2.77;;;;;;;18.40;72.25;101158.70;1682790;83;25719;-60
2021/07/22 05:21:20;;;;;;;11.18;3.55;;;;;;;18.43;72.08;101164.63;1685670;84;25772;-60
2021/07/22 05:24:01;;;;;;;12.00;3.40;;;;;;;18.50;71.67;101164.77;1684343;84;25999;-60
2021/07/22 05:26:33;;;;;;;15.58;3.12;;;;;;;18.51;71.43;101165.64;1628336;84;25863;-60
2021/07/22 05:29:17;;;;;;;13.72;3.80;;;;;;;18.54;71.40;101162.53;1641378;86;28192;-60
2021/07/22 05:31:56;;;;;;;15.25;3.50;;;;;;;18.58;71.05;101171.53;1655622;85;25930;-60
2021/07/22 05:34:24;;;;;;;13.98;4.50;;;;;;;18.60;71.21;101170.84;1672151;85;25802;-60
2021/07/22 05:36:54;;;;;;;8.15;3.47;;;;;;;18.63;71.55;101160.09;1672072;85;25824;-59
2021/07/22 05:39:26;;;;;;;9.38;3.33;;;;;;;18.73;71.20;101162.08;1674328;85;26007;-60
2021/07/22 05:41:53;;;;;;;9.98;4.12;;;;;;;18.75;71.02;101162.75;1674428;84;27471;-60
2021/07/22 05:44:20;;;;;;;14.85;3.33;;;;;;;18.81;70.59;101164.41;1674576;85;25708;-60
2021/07/22 05:46:48;;;;;;;10.82;3.80;;;;;;;18.83;70.84;101155.02;1673888;85;25808;-60
2021/07/22 05:49:17;;;;;;;10.00;3.35;;;;;;;18.86;71.00;101162.84;1672617;85;25789;-60
2021/07/22 05:51:47;;;;;;;9.43;3.80;;;;;;;18.91;70.89;101164.52;1672845;85;25882;-61
2021/07/22 05:54:20;;;;;;;9.25;3.40;;;;;;;18.97;70.87;101171.13;1657598;85;28211;-61
2021/07/22 05:56:59;;;;;;;27.75;3.90;;;;;;;19.04;70.81;101168.03;1672509;84;25839;-64
2021/07/22 05:59:31;;;;;;;12.68;4.25;;;;;;;19.07;69.98;101163.56;1673661;84;25336;-63
2021/07/22 06:02:07;;;;;;;9.80;3.72;;;;;;;19.16;69.80;101168.94;1673215;84;25796;-64
2021/07/22 06:04:36;;;;;;;8.38;3.22;;;;;;;19.19;69.83;101164.50;1672474;85;25320;-62
2021/07/22 06:07:05;;;;;;;18.52;4.62;;;;;;;19.26;69.75;101157.80;1674374;85;27256;-60
2021/07/22 06:09:32;;;;;;;8.38;3.50;;;;;;;19.28;69.73;101170.21;1673969;85;25841;-60
2021/07/22 06:12:00;;;;;;;5.28;2.92;;;;;;;19.26;68.75;101166.81;1674378;85;25784;-60
2021/07/22 06:14:27;;;;;;;11.65;4.33;;;;;;;19.27;68.84;101176.70;1674526;85;25805;-60
2021/07/22 06:16:53;;;;;;;12.00;3.85;;;;;;;19.29;68.83;101175.14;1674518;85;25748;-60
2021/07/22 06:19:20;;;;;;;14.18;3.27;;;;;;;19.31;68.31;101178.04;1675999;84;27428;-60
2021/07/22 06:21:47;;;;;;;12.53;4.45;;;;;;;19.40;68.16;101174.70;1674470;84;25748;-59
2021/07/22 06:24:14;;;;;;;7.40;3.62;;;;;;;19.44;68.04;101180.13;1674886;85;25483;-61
2021/07/22 06:26:41;;;;;;;12.10;3.62;;;;;;;19.48;67.72;101171.06;1682421;84;25785;-60
2021/07/22 06:29:08;;;;;;;10.13;3.47;;;;;;;19.51;67.66;101169.30;1684938;83;25789;-61
2021/07/22 06:31:35;;;;;;;6.33;3.60;;;;;;;19.61;67.73;101174.52;1685207;85;27468;-60
2021/07/22 06:34:01;;;;;;;14.45;4.10;;;;;;;19.66;68.01;101178.88;1685046;85;25818;-61
2021/07/22 06:36:28;;;;;;;10.35;3.62;;;;;;;19.71;67.49;101181.38;1684285;84;25726;-60
2021/07/22 06:38:56;;;;;;;8.25;3.92;;;;;;;19.76;67.23;101182.19;1682941;85;26059;-60
2021/07/22 06:41:22;;;;;;;11.63;4.58;;;;;;;19.76;66.95;101170.44;1682939;84;25750;-60
2021/07/22 06:43:49;;;;;;;7.92;3.47;;;;;;;19.78;67.14;101166.48;1676299;84;27535;-61
2021/07/22 06:46:16;;;;;;;10.95;3.85;;;;;;;19.83;67.68;101174.11;1682715;85;26051;-60
2021/07/22 06:48:44;;;;;;;10.03;4.05;;;;;;;19.86;67.50;101173.23;1683311;84;25973;-61
2021/07/22 06:51:13;;;;;;;12.58;4.37;;;;;;;19.90;66.98;101175.08;1682382;83;25799;-62
2021/07/22 06:53:42;;;;;;;7.75;3.40;;;;;;;19.91;66.54;101179.50;1679132;84;25985;-60
2021/07/22 06:56:09;;;;;;;16.30;3.67;;;;;;;19.95;66.71;101169.88;1683035;85;27448;-60
2021/07/22 06:58:39;;;;;;;11.78;3.95;;;;;;;20.09;66.90;101170.08;1683550;85;26335;-61
2021/07/22 07:01:06;;;;;;;26.52;4.67;;;;;;;20.17;66.66;101159.88;1684010;84;26581;-61
2021/07/22 07:03:33;;;;;;;20.35;4.00;;;;;;;20.29;67.21;101164.36;1682848;85;26022;-60
2021/07/22 07:06:00;;;;;;;9.23;4.10;;;;;;;20.39;67.21;101161.31;1681888;85;26532;-61
2021/07/22 07:08:28;;;;;;;5.87;3.92;;;;;;;20.49;67.32;101168.69;1683675;84;27434;-61
2021/07/22 07:10:54;;;;;;;7.58;3.67;;;;;;;20.54;66.17;101165.38;1682632;83;25795;-60
2021/07/22 07:13:21;;;;;;;9.78;4.17;;;;;;;20.56;66.11;101168.78;1683172;84;25745;-63
2021/07/22 07:15:48;;;;;;;9.45;3.85;;;;;;;20.61;65.55;101162.20;1683871;85;25787;-61
2021/07/22 07:18:15;;;;;;;8.28;3.92;;;;;;;20.68;65.71;101160.05;1683549;85;25796;-61
2021/07/22 07:20:41;;;;;;;6.65;4.17;;;;;;;20.72;65.37;101163.57;1684744;83;27462;-61
2021/07/22 07:23:08;;;;;;;12.13;4.15;;;;;;;20.70;64.78;101166.17;1686311;83;25791;-61
2021/07/22 07:25:35;;;;;;;7.20;3.87;;;;;;;20.74;65.23;101161.52;1681302;82;25880;-60
2021/07/22 07:28:03;;;;;;;13.55;4.35;;;;;;;20.76;64.12;101159.45;1677755;84;25879;-64
2021/07/22 07:30:30;;;;;;;7.03;3.72;;;;;;;20.77;64.71;101165.75;1676338;85;25749;-61
2021/07/22 07:32:57;;;;;;;12.00;4.12;;;;;;;20.83;65.22;101159.53;1677658;85;27472;-61
2021/07/22 07:35:25;;;;;;;16.17;3.72;;;;;;;20.98;65.70;101154.50;1675272;85;25790;-61
2021/07/22 07:37:53;;;;;;;12.70;3.40;;;;;;;21.08;65.55;101156.39;1662297;84;25736;-61
2021/07/22 07:40:20;;;;;;;15.50;3.85;;;;;;;21.15;64.20;101160.02;1657690;85;25756;-61
2021/07/22 07:42:47;;;;;;;9.13;4.47;;;;;;;21.17;64.17;101166.16;1657411;85;26446;-61
2021/07/22 07:45:14;;;;;;;14.65;4.30;;;;;;;21.21;63.82;101161.96;1657236;86;27531;-61
2021/07/22 07:47:41;;;;;;;9.25;3.80;;;;;;;21.26;62.99;101170.44;1658818;85;25823;-61
2021/07/22 07:50:09;;;;;;;8.68;3.47;;;;;;;21.50;63.79;101162.83;1657535;85;25725;-61
2021/07/22 07:52:37;;;;;;;10.03;3.85;;;;;;;21.76;63.16;101176.41;1657751;85;25957;-61
2021/07/22 07:55:07;;;;;;;8.53;4.37;;;;;;;21.95;62.09;101169.37;1672185;85;26513;-61
2021/07/22 07:57:33;;;;;;;7.95;3.85;;;;;;;22.13;61.81;101172.09;1674690;85;27374;-61
2021/07/22 08:00:01;;;;;;;8.93;4.00;;;;;;;22.26;61.22;101168.03;1674491;85;25760;-61
2021/07/22 08:02:28;;;;;;;13.80;3.95;;;;;;;22.38;60.91;101180.62;1674258;85;25779;-61
2021/07/22 08:04:57;;;;;;;11.95;3.80;;;;;;;22.59;59.35;101179.66;1674691;85;26468;-62
2021/07/22 08:07:24;;;;;;;10.35;3.55;;;;;;;22.65;58.31;101171.14;1674485;85;25823;-61
2021/07/22 08:09:54;;;;;;;14.20;3.55;;;;;;;22.65;58.43;101171.14;1674636;85;27526;-61
2021/07/22 08:12:22;;;;;;;9.30;3.33;;;;;;;22.72;59.18;101168.42;1674609;85;25843;-61
2021/07/22 08:14:49;;;;;;;13.53;3.65;;;;;;;22.89;58.47;101171.09;1674795;85;25725;-61
2021/07/22 08:17:19;;;;;;;14.33;3.83;;;;;;;23.03;58.30;101186.22;1673668;85;25836;-61
2021/07/22 08:19:46;;;;;;;19.62;4.65;;;;;;;23.14;58.24;101175.45;1688886;84;26462;-61
2021/07/22 08:22:13;;;;;;;14.87;3.62;;;;;;;23.25;58.46;101179.50;1684334;84;27447;-61
2021/07/22 08:24:40;;;;;;;10.43;3.30;;;;;;;23.39;56.67;101176.77;1674212;85;25939;-60
2021/07/22 08:27:07;;;;;;;15.20;3.40;;;;;;;23.51;55.39;101175.05;1682350;84;26697;-61
2021/07/22 08:29:39;;;;;;;15.68;3.50;;;;;;;23.65;55.38;101175.05;1684257;84;25855;-61
2021/07/22 08:32:08;;;;;;;15.53;3.33;;;;;;;23.68;56.07;101174.09;1681527;83;25720;-60
2021/07/22 08:34:35;;;;;;;12.70;3.67;;;;;;;23.74;55.38;101173.22;1657872;86;27523;-61
2021/07/22 08:37:09;;;;;;;11.25;3.10;;;;;;;23.75;55.30;101172.17;1657509;86;25831;-61
2021/07/22 08:39:38;;;;;;;7.35;3.20;;;;;;;23.65;55.67;101166.81;1658046;85;25828;-61
2021/07/22 08:42:07;;;;;;;10.38;3.70;;;;;;;23.68;54.81;101154.86;1657564;86;25828;-62
2021/07/22 08:44:41;;;;;;;25.43;4.17;;;;;;;23.67;55.60;101179.27;1658179;86;26591;-61
2021/07/22 08:47:09;;;;;;;;;;;;;;;23.70;55.21;101170.61;1706121;82;27467;-61
2021/07/22 08:49:40;;;;;;;9.05;3.55;;;;;;;23.70;54.53;101176.10;1688059;84;25644;-61
2021/07/22 08:52:11;;;;;;;11.53;4.03;;;;;;;23.71;54.43;101168.69;1685722;85;25778;-61
2021/07/22 08:54:42;;;;;;;7.55;3.25;;;;;;;23.75;54.42;101179.04;1685690;83;25801;-61
2021/07/22 08:57:12;;;;;;;11.50;3.10;;;;;;;23.86;53.51;101175.32;1684777;83;25823;-61
2021/07/22 08:59:39;;;;;;;12.30;3.80;;;;;;;23.96;54.24;101186.75;1687441;83;27406;-61
2021/07/22 09:02:06;;;;;;;9.35;3.27;;;;;;;24.20;53.00;101168.70;1704904;84;25686;-61
2021/07/22 09:04:56;;;;;;;14.78;3.15;;;;;;;24.29;52.36;101180.28;1705319;82;25730;-61
2021/07/22 09:07:24;;;;;;;6.92;2.75;;;;;;;24.43;50.45;101176.94;1704842;83;25719;-60
2021/07/22 09:10:09;;;;;;;7.08;2.70;;;;;;;24.54;49.90;101175.40;1705188;82;25927;-61
2021/07/22 09:12:40;;;;;;;6.58;2.92;;;;;;;24.61;50.33;101180.33;1685370;84;28112;-61
2021/07/22 09:15:23;;;;;;;6.40;2.65;;;;;;;24.75;49.89;101177.00;1697363;82;25724;-61
2021/07/22 09:17:51;;;;;;;9.35;3.17;;;;;;;24.90;50.10;101178.63;1683579;84;25520;-60
2021/07/22 09:20:29;;;;;;;7.65;2.92;;;;;;;25.15;49.66;101165.73;1684555;83;25911;-60
2021/07/22 09:22:58;;;;;;;13.22;3.15;;;;;;;25.37;48.98;101184.59;1706423;83;25764;-60
2021/07/22 09:25:43;;;;;;;13.65;3.08;;;;;;;25.55;47.80;101178.33;1714119;83;27444;-60
2021/07/22 09:28:19;;;;;;;10.10;2.62;;;;;;;25.81;47.30;101179.13;1714066;83;25472;-60
2021/07/22 09:31:01;;;;;;;7.15;2.72;;;;;;;25.98;47.28;101180.76;1706465;83;25746;-59
2021/07/22 09:33:38;;;;;;;14.63;3.55;;;;;;;26.25;45.50;101174.95;1705560;83;26656;-59
2021/07/22 09:36:20;;;;;;;8.43;2.70;;;;;;;26.39;46.60;101179.22;1705002;82;25800;-59
2021/07/22 09:38:48;;;;;;;8.38;2.55;;;;;;;26.70;45.71;101181.47;1702934;82;27862;-60
2021/07/22 09:41:23;;;;;;;14.43;2.52;;;;;;;27.00;42.44;101179.23;1704870;82;26238;-59
2021/07/22 09:43:51;;;;;;;11.18;2.50;;;;;;;27.13;42.22;101178.17;1703626;82;26434;-60
2021/07/22 09:46:18;;;;;;;10.72;2.37;;;;;;;27.17;42.55;101186.81;1685678;85;26327;-60
2021/07/22 09:49:11;;;;;;;9.15;2.37;;;;;;;27.34;41.55;101178.69;1685406;85;25815;-60
2021/07/22 09:51:38;;;;;;;21.02;2.02;;;;;;;27.53;40.94;101171.70;1685601;85;26974;-60
2021/07/22 09:54:12;;;;;;;4.40;2.02;;;;;;;27.77;39.90;101163.70;1700623;84;25813;-61
2021/07/22 09:56:40;;;;;;;;;;;;;;;27.90;39.04;101164.53;1696065;84;25625;-61
2021/07/22 09:59:08;;;;;;;11.70;2.37;;;;;;;28.07;37.75;101161.86;1685486;85;26335;-61
2021/07/22 10:01:47;;;;;;;7.92;2.15;;;;;;;28.06;37.35;101160.18;1685445;84;25808;-61
2021/07/22 10:04:15;;;;;;;5.75;2.22;;;;;;;28.08;38.18;101163.55;1685368;85;27463;-61
2021/07/22 10:06:47;;;;;;;9.13;2.30;;;;;;;28.32;37.71;101158.80;1685378;85;25821;-60
2021/07/22 10:09:20;;;;;;;6.33;2.22;;;;;;;28.52;38.07;101163.05;1687664;84;25746;-61
2021/07/22 10:11:48;;;;;;;9.55;2.22;;;;;;;28.80;37.95;101172.46;1685682;85;26386;-60
2021/07/22 10:14:21;;;;;;;9.00;2.22;;;;;;;29.09;37.11;101165.49;1685488;85;25754;-61
2021/07/22 10:16:49;;;;;;;5.30;1.92;;;;;;;29.33;35.08;101161.48;1684972;85;33005;-61
2021/07/22 10:19:17;;;;;;;12.00;2.83;;;;;;;29.49;34.67;101175.57;1681931;85;25820;-60
2021/07/22 10:21:45;;;;;;;12.33;2.05;;;;;;;29.92;33.28;101161.52;1650000;86;25782;-59
2021/07/22 10:24:12;;;;;;;4.58;2.05;;;;;;;30.25;34.42;101163.89;1714506;82;25778;-60
2021/07/22 10:26:40;;;;;;;9.05;1.90;;;;;;;30.70;33.63;101161.07;1717595;82;25748;-59
2021/07/22 10:29:07;;;;;;;6.85;2.35;;;;;;;30.88;33.92;101166.25;1726837;83;27529;-59
2021/07/22 10:31:41;;;;;;;5.20;2.10;;;;;;;31.46;32.88;101165.61;1715151;83;25937;-60
2021/07/22 10:34:11;;;;;;;6.03;1.80;;;;;;;31.42;31.56;101168.66;1713922;83;25796;-59
2021/07/22 10:36:40;;;;;;;4.85;2.10;;;;;;;31.32;30.75;101162.45;1709737;83;25796;-60
2021/07/22 10:39:08;;;;;;;5.10;2.17;;;;;;;31.44;31.94;101165.03;1707179;83;25869;-60
2021/07/22 10:41:41;;;;;;;11.12;1.75;;;;;;;31.53;32.56;101166.20;1707451;82;28776;-59
2021/07/22 10:44:25;;;;;;;7.08;2.52;;;;;;;30.91;33.91;101169.87;1706968;83;25675;-60
2021/07/22 10:46:59;;;;;;;11.05;2.17;;;;;;;30.84;33.40;101175.37;1707407;84;25751;-60
2021/07/22 10:49:41;;;;;;;7.97;1.90;;;;;;;31.35;33.14;101172.19;1706652;82;26393;-60
2021/07/22 10:52:14;;;;;;;8.50;1.92;;;;;;;31.65;32.02;101169.34;1688110;84;26522;-61
2021/07/22 10:54:47;;;;;;;13.65;1.98;;;;;;;31.89;31.40;101171.19;1685170;85;27854;-61
2021/07/22 10:57:38;;;;;;;9.18;1.72;;;;;;;32.11;30.02;101169.61;1684844;85;25986;-61
2021/07/22 11:00:08;;;;;;;12.58;2.00;;;;;;;32.24;30.11;101173.02;1685272;85;25783;-60
2021/07/22 11:02:48;;;;;;;9.18;2.77;;;;;;;32.35;30.73;101174.73;1685119;85;25806;-61
2021/07/22 11:05:27;;;;;;;7.05;1.85;;;;;;;32.66;29.61;101176.21;1689277;83;25779;-62
2021/07/22 11:08:21;;;;;;;6.58;2.08;;;;;;;33.06;29.19;101168.20;1707014;83;27483;-61
2021/07/22 11:11:06;;;;;;;7.60;1.90;;;;;;;32.91;29.86;101160.09;1700537;82;25774;-61
2021/07/22 11:13:45;;;;;;;8.63;1.82;;;;;;;32.84;27.94;101165.11;1707236;82;25688;-60
2021/07/22 11:16:31;;;;;;;8.78;1.82;;;;;;;32.89;27.16;101161.49;1707269;84;26572;-61
2021/07/22 11:19:15;;;;;;;5.35;1.77;;;;;;;33.21;27.43;101168.75;1677718;83;25875;-61
2021/07/22 11:21:51;;;;;;;5.42;2.30;;;;;;;33.71;27.65;101170.34;1684768;83;26973;-61
2021/07/22 11:24:27;;;;;;;5.42;1.90;;;;;;;34.27;25.64;101170.73;1685096;84;25714;-61
2021/07/22 11:26:58;;;;;;;8.03;2.20;;;;;;;34.41;25.32;101170.13;1682886;83;25800;-61
2021/07/22 11:29:26;;;;;;;8.47;1.63;;;;;;;34.14;26.78;101169.95;1675470;85;25795;-61
2021/07/22 11:31:56;;;;;;;11.63;1.92;;;;;;;34.51;26.04;101166.45;1678544;84;25875;-61
2021/07/22 11:34:33;;;;;;;10.80;2.17;;;;;;;34.68;25.34;101169.69;1678445;84;27442;-61
2021/07/22 11:37:02;;;;;;;9.23;2.45;;;;;;;34.65;24.66;101163.27;1674785;85;25770;-61